createdAt,value
2023-04-15T00:00:58.496Z,61.60
2023-04-15T00:03:25.745Z,61.10
2023-04-15T00:05:52.785Z,61.07
2023-04-15T00:08:20.617Z,62.44
2023-04-15T00:10:47.970Z,62.03
2023-04-15T00:13:15.532Z,61.83
2023-04-15T00:15:43.387Z,62.21
2023-04-15T00:18:10.413Z,62.44
2023-04-15T00:20:37.724Z,62.02
2023-04-15T00:23:05.645Z,61.67
2023-04-15T00:25:33.039Z,61.27
2023-04-15T00:27:59.926Z,61.02
2023-04-15T00:30:26.788Z,60.54
2023-04-15T00:32:53.816Z,60.33
2023-04-15T00:35:22.534Z,60.39
2023-04-15T00:37:51.488Z,60.40
2023-04-15T00:40:21.090Z,60.49
2023-04-15T00:42:48.356Z,60.44
2023-04-15T00:45:15.788Z,60.21
2023-04-15T00:47:44.214Z,60.56
2023-04-15T00:50:12.633Z,60.85
2023-04-15T00:52:40.219Z,60.53
2023-04-15T00:55:08.001Z,60.92
2023-04-15T00:57:36.063Z,60.97
2023-04-15T01:00:04.685Z,61.29
2023-04-15T01:02:33.013Z,61.31
2023-04-15T01:05:01.984Z,61.35
2023-04-15T01:07:28.793Z,61.14
2023-04-15T01:09:55.719Z,61.49
2023-04-15T01:12:24.688Z,61.56
2023-04-15T01:14:51.484Z,61.49
2023-04-15T01:17:19.123Z,61.37
2023-04-15T01:19:46.676Z,61.27
2023-04-15T01:22:13.598Z,60.88
2023-04-15T01:24:41.132Z,60.88
2023-04-15T01:27:07.938Z,60.69
2023-04-15T01:29:38.572Z,60.74
2023-04-15T01:32:05.945Z,60.76
2023-04-15T01:34:35.552Z,60.66
2023-04-15T01:37:02.595Z,60.83
2023-04-15T01:39:29.331Z,61.30
2023-04-15T01:41:57.482Z,61.51
2023-04-15T01:44:24.592Z,61.27
2023-04-15T01:46:51.362Z,63.31
2023-04-15T01:49:18.970Z,61.54
2023-04-15T01:51:45.785Z,60.92
2023-04-15T01:54:13.072Z,60.94
2023-04-15T01:56:39.883Z,60.74
2023-04-15T01:59:06.722Z,60.97
2023-04-15T02:01:33.994Z,60.94
2023-04-15T02:04:01.159Z,60.96
2023-04-15T02:06:28.348Z,60.81
2023-04-15T02:08:55.598Z,60.84
2023-04-15T02:11:23.208Z,60.63
2023-04-15T02:13:50.177Z,60.67
2023-04-15T02:16:20.709Z,61.11
2023-04-15T02:18:48.019Z,61.06
2023-04-15T02:21:14.910Z,61.38
2023-04-15T02:23:41.679Z,61.26
2023-04-15T02:26:08.524Z,61.35
2023-04-15T02:28:35.906Z,61.36
2023-04-15T02:31:06.639Z,61.27
2023-04-15T02:33:33.864Z,61.27
2023-04-15T02:36:01.085Z,61.53
2023-04-15T02:38:28.659Z,61.44
2023-04-15T02:40:55.689Z,61.56
2023-04-15T02:43:22.586Z,61.75
2023-04-15T02:45:51.413Z,61.89
2023-04-15T02:48:20.316Z,62.39
2023-04-15T02:50:48.002Z,62.13
2023-04-15T02:53:16.170Z,62.18
2023-04-15T02:55:43.063Z,62.17
2023-04-15T02:58:10.019Z,62.63
2023-04-15T03:00:37.137Z,62.57
2023-04-15T03:03:05.676Z,62.97
2023-04-15T03:05:32.888Z,62.84
2023-04-15T03:08:01.476Z,62.53
2023-04-15T03:10:28.608Z,62.40
2023-04-15T03:12:55.733Z,62.30
2023-04-15T03:15:24.007Z,62.45
2023-04-15T03:17:53.213Z,62.84
2023-04-15T03:20:20.430Z,62.51
2023-04-15T03:22:48.452Z,62.69
2023-04-15T03:25:15.748Z,62.53
2023-04-15T03:27:43.322Z,62.86
2023-04-15T03:30:12.431Z,62.62
2023-04-15T03:32:40.855Z,63.15
2023-04-15T03:35:09.673Z,63.19
2023-04-15T03:37:36.863Z,63.14
2023-04-15T03:40:03.825Z,63.10
2023-04-15T03:42:30.628Z,62.88
2023-04-15T03:44:57.369Z,63.22
2023-04-15T03:47:24.242Z,63.68
2023-04-15T03:49:51.118Z,63.61
2023-04-15T03:52:17.888Z,63.68
2023-04-15T03:54:44.756Z,63.46
2023-04-15T03:57:11.624Z,63.55
2023-04-15T03:59:38.425Z,62.87
2023-04-15T04:02:05.260Z,62.85
2023-04-15T04:04:32.114Z,63.22
2023-04-15T04:06:58.943Z,62.90
2023-04-15T04:09:25.936Z,62.89
2023-04-15T04:11:52.689Z,63.17
2023-04-15T04:14:19.452Z,63.04
2023-04-15T04:16:46.629Z,63.19
2023-04-15T04:19:14.786Z,62.85
2023-04-15T04:21:41.607Z,62.29
2023-04-15T04:24:08.394Z,61.45
2023-04-15T04:26:35.127Z,61.56
2023-04-15T04:29:02.142Z,60.19
2023-04-15T04:31:29.363Z,59.34
2023-04-15T04:33:56.105Z,58.99
2023-04-15T04:36:22.902Z,57.51
2023-04-15T04:38:49.678Z,56.81
2023-04-15T04:41:16.418Z,56.43
2023-04-15T04:43:43.106Z,56.61
2023-04-15T04:46:10.531Z,56.58
2023-04-15T04:48:37.300Z,56.66
2023-04-15T04:51:04.176Z,56.62
2023-04-15T04:53:31.172Z,56.14
2023-04-15T04:55:58.268Z,56.17
2023-04-15T04:58:25.033Z,56.41
2023-04-15T05:00:52.104Z,56.29
2023-04-15T05:03:19.378Z,56.01
2023-04-15T05:05:46.474Z,56.24
2023-04-15T05:08:13.193Z,56.81
2023-04-15T05:10:39.915Z,56.75
2023-04-15T05:13:06.726Z,56.91
2023-04-15T05:15:35.105Z,56.71
2023-04-15T05:18:02.009Z,56.62
2023-04-15T05:20:29.106Z,56.81
2023-04-15T05:22:55.902Z,56.88
2023-04-15T05:25:23.078Z,56.75
2023-04-15T05:27:49.839Z,56.95
2023-04-15T05:30:16.903Z,57.09
2023-04-15T05:32:43.715Z,57.13
2023-04-15T05:35:10.749Z,57.18
2023-04-15T05:37:37.576Z,57.56
2023-04-15T05:40:04.623Z,57.94
2023-04-15T05:42:31.476Z,58.05
2023-04-15T05:44:58.383Z,58.30
2023-04-15T05:47:25.183Z,59.25
2023-04-15T05:49:52.081Z,60.01
2023-04-15T05:52:18.862Z,61.01
2023-04-15T05:54:45.737Z,61.01
2023-04-15T05:57:12.622Z,61.51
2023-04-15T05:59:39.382Z,61.36
2023-04-15T06:02:06.505Z,61.66
2023-04-15T06:04:33.476Z,61.50
2023-04-15T06:07:00.695Z,62.13
2023-04-15T06:09:28.907Z,61.81
2023-04-15T06:11:56.949Z,61.61
2023-04-15T06:14:23.879Z,61.51
2023-04-15T06:16:51.286Z,61.56
2023-04-15T06:19:18.503Z,61.47
2023-04-15T06:21:45.642Z,61.28
2023-04-15T06:24:12.473Z,60.98
2023-04-15T06:26:39.232Z,60.66
2023-04-15T06:29:06.043Z,60.72
2023-04-15T06:31:32.846Z,60.65
2023-04-15T06:33:59.626Z,60.83
2023-04-15T06:36:26.618Z,60.39
2023-04-15T06:38:53.398Z,59.91
2023-04-15T06:41:20.398Z,59.50
2023-04-15T06:43:47.382Z,58.86
2023-04-15T06:46:14.144Z,68.22
2023-04-15T06:48:41.359Z,62.20
2023-04-15T06:51:08.187Z,65.48
2023-04-15T06:53:35.669Z,61.47
2023-04-15T06:56:02.482Z,57.09
2023-04-15T06:58:29.255Z,58.73
2023-04-15T07:00:56.846Z,55.96
2023-04-15T07:03:23.568Z,58.35
2023-04-15T07:05:50.304Z,56.91
2023-04-15T07:08:17.030Z,55.52
2023-04-15T07:10:43.904Z,56.12
2023-04-15T07:13:11.197Z,54.81
2023-04-15T07:15:38.028Z,54.23
2023-04-15T07:18:04.790Z,55.70
2023-04-15T07:20:31.815Z,54.40
2023-04-15T07:22:59.022Z,56.85
2023-04-15T07:25:25.780Z,55.14
2023-04-15T07:27:54.055Z,54.07
2023-04-15T07:30:20.835Z,54.92
2023-04-15T07:32:47.636Z,52.93
2023-04-15T07:35:14.788Z,52.53
2023-04-15T07:37:43.272Z,52.78
2023-04-15T07:40:10.681Z,52.00
2023-04-15T07:42:39.378Z,51.78
2023-04-15T07:45:08.514Z,51.75
2023-04-15T07:47:35.758Z,51.76
2023-04-15T07:50:02.535Z,51.91
2023-04-15T07:52:29.283Z,52.03
2023-04-15T07:54:56.176Z,52.07
2023-04-15T07:57:22.910Z,51.73
2023-04-15T07:59:49.641Z,52.12
2023-04-15T08:02:16.569Z,52.22
2023-04-15T08:04:44.223Z,52.53
2023-04-15T08:07:11.104Z,53.88
2023-04-15T08:09:37.911Z,53.97
2023-04-15T08:12:05.032Z,54.49
2023-04-15T08:14:31.881Z,54.40
2023-04-15T08:16:58.601Z,53.20
2023-04-15T08:19:25.380Z,54.30
2023-04-15T08:21:52.162Z,52.55
2023-04-15T08:24:18.927Z,50.90
2023-04-15T08:26:46.903Z,48.96
2023-04-15T08:29:13.853Z,48.82
2023-04-15T08:31:40.791Z,48.71
2023-04-15T08:34:07.672Z,50.25
2023-04-15T08:36:34.406Z,47.60
2023-04-15T08:39:05.103Z,47.69
2023-04-15T08:41:40.215Z,46.51
2023-04-15T08:44:07.518Z,45.79
2023-04-15T08:46:37.833Z,45.07
2023-04-15T08:49:05.759Z,44.89
2023-04-15T08:51:34.019Z,44.78
2023-04-15T08:54:02.590Z,44.65
2023-04-15T08:56:33.038Z,44.47
2023-04-15T08:59:00.717Z,43.04
2023-04-15T09:01:27.819Z,42.57
2023-04-15T09:03:55.119Z,42.73
2023-04-15T09:06:22.884Z,42.03
2023-04-15T09:08:50.606Z,41.22
2023-04-15T09:11:20.029Z,41.26
2023-04-15T09:13:47.067Z,41.03
2023-04-15T09:16:14.387Z,40.51
2023-04-15T09:18:42.325Z,40.26
2023-04-15T09:21:11.856Z,41.03
2023-04-15T09:23:40.692Z,41.04
2023-04-15T09:26:08.422Z,40.60
2023-04-15T09:28:42.412Z,40.62
2023-04-15T09:31:10.630Z,40.45
2023-04-15T09:33:54.991Z,40.62
2023-04-15T09:36:21.842Z,40.06
2023-04-15T09:38:56.734Z,40.06
2023-04-15T09:41:24.993Z,39.71
2023-04-15T09:43:52.023Z,40.29
2023-04-15T09:46:19.346Z,39.63
2023-04-15T09:48:46.278Z,38.81
2023-04-15T09:51:13.019Z,38.87
2023-04-15T09:53:39.750Z,38.95
2023-04-15T09:56:08.876Z,39.13
2023-04-15T09:58:36.176Z,38.65
2023-04-15T10:01:07.760Z,38.59
2023-04-15T10:03:36.995Z,38.64
2023-04-15T10:06:05.497Z,38.25
2023-04-15T10:08:34.999Z,38.54
2023-04-15T10:11:03.178Z,38.41
2023-04-15T10:13:38.198Z,38.72
2023-04-15T10:16:12.386Z,38.40
2023-04-15T10:18:43.522Z,38.11
2023-04-15T10:21:10.579Z,37.42
2023-04-15T10:23:38.471Z,37.54
2023-04-15T10:26:06.264Z,37.48
2023-04-15T10:28:33.004Z,37.30
2023-04-15T10:31:01.177Z,36.92
2023-04-15T10:33:29.361Z,36.85
2023-04-15T10:35:56.739Z,37.76
2023-04-15T10:38:43.994Z,40.81
2023-04-15T10:41:24.585Z,42.02
2023-04-15T10:43:55.334Z,41.81
2023-04-15T10:46:42.698Z,42.41
2023-04-15T10:49:11.034Z,42.23
2023-04-15T10:51:42.863Z,42.25
2023-04-15T10:54:14.798Z,42.91
2023-04-15T10:56:42.021Z,42.72
2023-04-15T10:59:09.481Z,42.73
2023-04-15T11:01:54.409Z,42.40
2023-04-15T11:04:57.707Z,42.56
2023-04-15T11:07:39.869Z,42.56
2023-04-15T11:10:18.796Z,42.47
2023-04-15T11:12:51.404Z,42.49
2023-04-15T11:15:34.171Z,42.70
2023-04-15T11:18:16.543Z,41.13
2023-04-15T11:20:51.007Z,41.30
2023-04-15T11:23:19.764Z,41.10
2023-04-15T11:25:46.605Z,40.43
2023-04-15T11:28:13.787Z,40.67
2023-04-15T11:30:42.807Z,39.88
2023-04-15T11:33:14.799Z,40.39
2023-04-15T11:35:42.103Z,40.43
2023-04-15T11:38:14.465Z,41.05
2023-04-15T11:40:45.286Z,42.36
2023-04-15T11:43:16.679Z,42.27
2023-04-15T11:45:56.425Z,42.17
2023-04-15T11:48:28.020Z,40.79
2023-04-15T11:50:59.320Z,40.36
2023-04-15T11:53:37.175Z,40.53
2023-04-15T11:56:04.189Z,40.25
2023-04-15T11:58:31.665Z,40.87
2023-04-15T12:01:00.352Z,40.48
2023-04-15T12:03:32.144Z,41.31
2023-04-15T12:06:14.500Z,41.10
2023-04-15T12:08:57.860Z,41.46
2023-04-15T12:11:34.105Z,41.59
2023-04-15T12:14:15.880Z,42.01
2023-04-15T12:16:49.269Z,42.06
2023-04-15T12:19:22.790Z,42.70
2023-04-15T12:21:50.281Z,44.60
2023-04-15T12:24:22.666Z,44.20
2023-04-15T12:26:57.751Z,43.96
2023-04-15T12:29:29.294Z,43.92
2023-04-15T12:32:12.222Z,44.47
2023-04-15T12:34:53.304Z,45.31
2023-04-15T12:37:20.234Z,46.02
2023-04-15T12:39:49.151Z,45.48
2023-04-15T12:42:17.470Z,45.01
2023-04-15T12:44:44.322Z,45.21
2023-04-15T12:47:12.147Z,44.37
2023-04-15T12:49:39.828Z,43.54
2023-04-15T12:52:06.871Z,44.40
2023-04-15T12:54:34.607Z,44.62
2023-04-15T12:57:05.470Z,44.44
2023-04-15T12:59:33.307Z,43.59
2023-04-15T13:02:01.223Z,42.05
2023-04-15T13:04:30.800Z,41.98
2023-04-15T13:06:57.962Z,42.53
2023-04-15T13:09:25.118Z,42.23
2023-04-15T13:11:52.890Z,43.36
2023-04-15T13:14:19.981Z,44.03
2023-04-15T13:16:47.272Z,44.92
2023-04-15T13:19:14.349Z,45.15
2023-04-15T13:21:41.427Z,46.02
2023-04-15T13:24:08.562Z,46.45
2023-04-15T13:26:36.082Z,46.36
2023-04-15T13:29:04.854Z,47.23
2023-04-15T13:31:31.667Z,47.82
2023-04-15T13:33:58.437Z,48.43
2023-04-15T13:36:26.446Z,48.36
2023-04-15T13:38:53.251Z,50.19
2023-04-15T13:41:21.304Z,51.47
2023-04-15T13:43:48.132Z,51.52
2023-04-15T13:46:15.295Z,51.64
2023-04-15T13:48:42.395Z,52.01
2023-04-15T13:51:09.266Z,53.44
2023-04-15T13:53:38.931Z,53.77
2023-04-15T13:56:09.424Z,54.47
2023-04-15T13:58:37.766Z,55.78
2023-04-15T14:01:06.745Z,56.39
2023-04-15T14:03:37.232Z,57.35
2023-04-15T14:06:05.755Z,58.25
2023-04-15T14:08:32.814Z,58.78
2023-04-15T14:10:59.744Z,60.03
2023-04-15T14:13:26.464Z,61.38
2023-04-15T14:15:53.503Z,62.51
2023-04-15T14:18:20.384Z,62.20
2023-04-15T14:20:47.203Z,62.98
2023-04-15T14:23:13.944Z,63.29
2023-04-15T14:25:40.974Z,64.25
2023-04-15T14:28:07.822Z,65.20
2023-04-15T14:30:34.763Z,66.12
2023-04-15T14:33:01.772Z,66.36
2023-04-15T14:35:28.719Z,66.96
2023-04-15T14:37:55.794Z,66.16
2023-04-15T14:40:24.923Z,66.73
2023-04-15T14:42:51.646Z,67.45
2023-04-15T14:45:18.456Z,66.74
2023-04-15T14:47:45.498Z,66.00
2023-04-15T14:50:12.663Z,65.70
2023-04-15T14:52:39.701Z,66.25
2023-04-15T14:55:10.964Z,65.54
2023-04-15T14:57:42.716Z,65.98
2023-04-15T15:00:13.798Z,64.60
2023-04-15T15:02:43.645Z,63.88
2023-04-15T15:05:12.322Z,61.91
2023-04-15T15:07:40.859Z,60.85
2023-04-15T15:10:08.280Z,60.42
2023-04-15T15:12:35.150Z,60.59
2023-04-15T15:15:12.324Z,60.60
2023-04-15T15:17:46.739Z,60.83
2023-04-15T15:20:13.595Z,60.52
2023-04-15T15:22:40.649Z,59.93
2023-04-15T15:25:07.539Z,59.52
2023-04-15T15:27:35.485Z,59.70
2023-04-15T15:30:04.547Z,60.12
2023-04-15T15:32:31.614Z,60.47
2023-04-15T15:34:58.445Z,60.27
2023-04-15T15:37:25.318Z,60.62
2023-04-15T15:39:53.307Z,60.90
2023-04-15T15:42:20.237Z,60.78
2023-04-15T15:44:49.349Z,61.14
2023-04-15T15:47:16.979Z,60.63
2023-04-15T15:49:43.991Z,60.33
2023-04-15T15:52:11.733Z,59.91
2023-04-15T15:54:39.974Z,59.93
2023-04-15T15:57:07.412Z,60.40
2023-04-15T15:59:34.368Z,59.86
2023-04-15T16:02:02.528Z,59.64
2023-04-15T16:04:29.815Z,59.79
2023-04-15T16:06:56.708Z,59.80
2023-04-15T16:09:23.541Z,59.50
2023-04-15T16:11:50.410Z,59.73
2023-04-15T16:14:17.268Z,60.02
2023-04-15T16:16:44.137Z,60.65
2023-04-15T16:19:10.940Z,60.65
2023-04-15T16:21:37.746Z,60.93
2023-04-15T16:24:04.521Z,60.68
2023-04-15T16:26:31.428Z,60.14
2023-04-15T16:28:58.394Z,60.24
2023-04-15T16:31:25.575Z,60.66
2023-04-15T16:33:52.427Z,61.18
2023-04-15T16:36:19.242Z,60.93
2023-04-15T16:38:48.469Z,61.83
2023-04-15T16:41:16.282Z,60.97
2023-04-15T16:43:43.050Z,60.73
2023-04-15T16:46:09.843Z,60.53
2023-04-15T16:48:36.630Z,60.32
2023-04-15T16:51:03.391Z,60.60
2023-04-15T16:53:30.391Z,60.08
2023-04-15T16:55:57.261Z,59.58
2023-04-15T16:58:24.031Z,58.81
2023-04-15T17:00:51.378Z,57.73
2023-04-15T17:03:18.269Z,57.75
2023-04-15T17:05:46.168Z,57.63
2023-04-15T17:08:12.972Z,57.39
2023-04-15T17:10:39.763Z,56.88
2023-04-15T17:13:06.613Z,57.11
2023-04-15T17:15:33.436Z,57.09
2023-04-15T17:18:00.337Z,57.33
2023-04-15T17:20:27.177Z,56.42
2023-04-15T17:22:54.026Z,56.59
2023-04-15T17:25:20.906Z,56.18
2023-04-15T17:27:47.739Z,56.08
2023-04-15T17:30:14.545Z,57.28
2023-04-15T17:32:41.431Z,57.16
2023-04-15T17:35:08.590Z,57.93
2023-04-15T17:37:35.839Z,58.00
2023-04-15T17:40:03.093Z,57.94
2023-04-15T17:42:29.883Z,57.65
2023-04-15T17:44:56.713Z,57.90
2023-04-15T17:47:23.540Z,58.15
2023-04-15T17:49:59.579Z,57.79
2023-04-15T17:52:26.436Z,58.17
2023-04-15T17:54:53.191Z,58.33
2023-04-15T17:57:20.203Z,57.61
2023-04-15T17:59:47.909Z,57.65
2023-04-15T18:02:15.479Z,57.88
2023-04-15T18:04:42.725Z,58.30
2023-04-15T18:07:09.687Z,58.15
2023-04-15T18:09:36.825Z,58.09
2023-04-15T18:12:04.666Z,58.30
2023-04-15T18:14:34.706Z,58.18
2023-04-15T18:17:04.909Z,58.14
2023-04-15T18:19:32.094Z,58.38
2023-04-15T18:22:00.257Z,58.20
2023-04-15T18:24:27.904Z,58.26
2023-04-15T18:26:54.782Z,58.26
2023-04-15T18:29:21.580Z,58.28
2023-04-15T18:31:48.488Z,58.30
2023-04-15T18:34:15.422Z,58.57
2023-04-15T18:36:42.306Z,58.31
2023-04-15T18:39:09.282Z,58.45
2023-04-15T18:41:36.156Z,58.30
2023-04-15T18:44:02.914Z,57.96
2023-04-15T18:46:32.051Z,58.01
2023-04-15T18:48:58.817Z,58.25
2023-04-15T18:51:26.005Z,58.37
2023-04-15T18:53:52.841Z,58.03
2023-04-15T18:56:19.602Z,58.03
2023-04-15T18:59:25.357Z,57.77
2023-04-15T19:01:33.232Z,57.54
2023-04-15T19:04:00.207Z,57.56
2023-04-15T19:06:27.380Z,57.57
2023-04-15T19:08:54.799Z,57.82
2023-04-15T19:11:21.798Z,57.74
2023-04-15T19:13:48.636Z,57.36
2023-04-15T19:16:15.497Z,57.32
2023-04-15T19:18:43.076Z,57.16
2023-04-15T19:21:11.416Z,57.43
2023-04-15T19:23:38.846Z,57.20
2023-04-15T19:26:08.211Z,57.55
2023-04-15T19:28:35.245Z,57.77
2023-04-15T19:31:02.161Z,57.67
2023-04-15T19:33:31.366Z,57.79
2023-04-15T19:36:06.042Z,57.84
2023-04-15T19:38:35.042Z,58.12
2023-04-15T19:41:01.883Z,57.92
2023-04-15T19:43:30.954Z,58.36
2023-04-15T19:45:57.935Z,58.78
2023-04-15T19:48:25.662Z,58.58
2023-04-15T19:50:52.538Z,58.77
2023-04-15T19:53:19.378Z,58.68
2023-04-15T19:55:47.220Z,59.02
2023-04-15T19:58:14.301Z,58.51
2023-04-15T20:00:41.162Z,58.64
2023-04-15T20:03:08.042Z,58.61
2023-04-15T20:05:35.610Z,58.94
2023-04-15T20:08:03.097Z,59.81
2023-04-15T20:10:31.679Z,59.41
2023-04-15T20:12:58.668Z,59.90
2023-04-15T20:15:26.093Z,59.49
2023-04-15T20:17:52.974Z,59.76
2023-04-15T20:20:20.423Z,60.15
2023-04-15T20:22:47.435Z,60.62
2023-04-15T20:25:14.336Z,60.77
2023-04-15T20:27:41.196Z,60.99
2023-04-15T20:30:08.707Z,61.35
2023-04-15T20:32:36.293Z,61.97
2023-04-15T20:35:07.094Z,62.12
2023-04-15T20:37:34.623Z,62.59
2023-04-15T20:40:01.840Z,62.60
2023-04-15T20:42:33.296Z,62.09
2023-04-15T20:45:00.103Z,61.73
2023-04-15T20:47:27.067Z,61.14
2023-04-15T20:49:54.259Z,60.80
2023-04-15T20:52:21.182Z,60.34
2023-04-15T20:54:47.961Z,60.28
2023-04-15T20:57:14.734Z,60.27
2023-04-15T20:59:41.478Z,60.01
2023-04-15T21:02:08.322Z,60.15
2023-04-15T21:04:35.392Z,60.11
2023-04-15T21:07:02.122Z,60.56
2023-04-15T21:09:29.103Z,60.49
2023-04-15T21:14:25.667Z,60.78
2023-04-15T21:16:52.400Z,60.46
2023-04-15T21:19:19.250Z,60.66
2023-04-15T21:21:46.145Z,60.46
2023-04-15T21:24:12.960Z,60.37
2023-04-15T21:26:39.738Z,60.17
2023-04-15T21:29:08.761Z,60.46
2023-04-15T21:31:37.454Z,60.46
2023-04-15T21:34:04.366Z,60.52
2023-04-15T21:36:31.892Z,60.85
2023-04-15T21:38:58.752Z,61.05
2023-04-15T21:41:25.961Z,61.03
2023-04-15T21:43:53.364Z,60.70
2023-04-15T21:46:23.259Z,61.07
2023-04-15T21:48:53.599Z,62.17
2023-04-15T21:51:20.673Z,61.98
2023-04-15T21:53:47.640Z,61.89
2023-04-15T21:56:14.518Z,61.59
2023-04-15T21:58:41.499Z,61.53
2023-04-15T22:01:08.305Z,61.30
2023-04-15T22:03:35.714Z,61.11
2023-04-15T22:06:03.690Z,61.15
2023-04-15T22:08:38.705Z,61.24
2023-04-15T22:11:28.771Z,61.02
2023-04-15T22:13:57.183Z,60.93
2023-04-15T22:16:25.762Z,61.20
2023-04-15T22:18:52.720Z,60.89
2023-04-15T22:21:19.828Z,60.99
2023-04-15T22:23:47.788Z,60.63
2023-04-15T22:26:14.996Z,60.56
2023-04-15T22:28:42.078Z,61.05
2023-04-15T22:31:09.053Z,61.22
2023-04-15T22:33:36.052Z,61.13
2023-04-15T22:36:02.892Z,61.12
2023-04-15T22:38:29.721Z,61.25
2023-04-15T22:40:56.530Z,60.75
2023-04-15T22:43:23.356Z,60.56
2023-04-15T22:45:51.189Z,60.43
2023-04-15T22:48:18.812Z,60.48
2023-04-15T22:50:46.170Z,60.32
2023-04-15T22:53:13.151Z,60.31
2023-04-15T22:55:39.917Z,60.47
2023-04-15T22:58:06.852Z,60.27
2023-04-15T23:00:33.592Z,60.54
2023-04-15T23:03:00.623Z,60.85
2023-04-15T23:05:27.764Z,60.62
2023-04-15T23:07:54.757Z,60.61
2023-04-15T23:10:21.754Z,60.73
2023-04-15T23:12:48.722Z,60.72
2023-04-15T23:15:15.824Z,60.77
2023-04-15T23:17:43.369Z,60.80
2023-04-15T23:20:11.407Z,61.02
2023-04-15T23:22:38.963Z,61.21
2023-04-15T23:25:08.716Z,61.22
2023-04-15T23:27:36.434Z,61.80
2023-04-15T23:30:03.952Z,61.92
2023-04-15T23:32:30.893Z,61.57
2023-04-15T23:34:57.791Z,61.47
2023-04-15T23:37:24.486Z,61.40
2023-04-15T23:39:58.622Z,61.36
2023-04-15T23:42:25.967Z,61.50
2023-04-15T23:44:52.863Z,61.63
2023-04-15T23:47:26.888Z,61.52
2023-04-15T23:49:53.815Z,61.56
2023-04-15T23:52:20.739Z,61.58
2023-04-15T23:54:47.494Z,61.69
2023-04-15T23:57:14.272Z,61.58
2023-04-15T23:59:41.028Z,61.54
